sensor_id;sensor_type;location;lat;lon;timestamp;pressure;altitude;pressure_sealevel;temperature;humidity
60920;BME280;59039;52.108;19.942;2023-11-18T00:00:46;100745.66;;;2.06;87.97
60920;BME280;59039;52.108;19.942;2023-11-18T00:03:12;100750.67;;;2.06;87.90
60920;BME280;59039;52.108;19.942;2023-11-18T00:05:37;100750.93;;;2.05;87.97
60920;BME280;59039;52.108;19.942;2023-11-18T00:08:02;100755.45;;;2.04;87.78
60920;BME280;59039;52.108;19.942;2023-11-18T00:10:27;100750.64;;;2.04;87.96
60920;BME280;59039;52.108;19.942;2023-11-18T00:12:53;100751.73;;;2.04;87.82
60920;BME280;59039;52.108;19.942;2023-11-18T00:15:18;100754.80;;;2.00;87.64
60920;BME280;59039;52.108;19.942;2023-11-18T00:17:43;100757.52;;;1.97;87.81
60920;BME280;59039;52.108;19.942;2023-11-18T00:20:09;100760.70;;;1.97;87.90
60920;BME280;59039;52.108;19.942;2023-11-18T00:22:35;100763.73;;;1.97;88.07
60920;BME280;59039;52.108;19.942;2023-11-18T00:25:00;100772.51;;;1.97;88.04
60920;BME280;59039;52.108;19.942;2023-11-18T00:27:26;100777.47;;;1.98;88.18
60920;BME280;59039;52.108;19.942;2023-11-18T00:29:51;100779.54;;;1.99;88.31
60920;BME280;59039;52.108;19.942;2023-11-18T00:32:16;100782.55;;;1.99;88.16
60920;BME280;59039;52.108;19.942;2023-11-18T00:34:41;100784.46;;;2.00;88.15
60920;BME280;59039;52.108;19.942;2023-11-18T00:37:07;100784.20;;;2.02;88.22
60920;BME280;59039;52.108;19.942;2023-11-18T00:39:32;100789.65;;;2.03;88.14
60920;BME280;59039;52.108;19.942;2023-11-18T00:41:57;100792.46;;;2.04;88.16
60920;BME280;59039;52.108;19.942;2023-11-18T00:44:22;100792.77;;;2.05;88.27
60920;BME280;59039;52.108;19.942;2023-11-18T00:46:47;100794.83;;;2.06;87.93
60920;BME280;59039;52.108;19.942;2023-11-18T00:49:13;100799.30;;;2.06;87.81
60920;BME280;59039;52.108;19.942;2023-11-18T00:51:38;100801.16;;;2.05;87.55
60920;BME280;59039;52.108;19.942;2023-11-18T00:54:04;100799.85;;;2.03;87.60
60920;BME280;59039;52.108;19.942;2023-11-18T00:56:29;100798.81;;;2.02;87.75
60920;BME280;59039;52.108;19.942;2023-11-18T00:58:54;100796.52;;;2.02;87.73
60920;BME280;59039;52.108;19.942;2023-11-18T01:01:20;100796.90;;;2.01;87.47
60920;BME280;59039;52.108;19.942;2023-11-18T01:03:45;100800.52;;;2.01;87.66
60920;BME280;59039;52.108;19.942;2023-11-18T01:06:10;100801.78;;;2.01;87.59
60920;BME280;59039;52.108;19.942;2023-11-18T01:08:35;100799.11;;;2.00;87.63
60920;BME280;59039;52.108;19.942;2023-11-18T01:11:01;100800.55;;;2.00;87.54
60920;BME280;59039;52.108;19.942;2023-11-18T01:13:26;100800.16;;;2.01;87.50
60920;BME280;59039;52.108;19.942;2023-11-18T01:15:51;100803.20;;;2.01;87.55
60920;BME280;59039;52.108;19.942;2023-11-18T01:18:17;100803.24;;;2.00;87.50
60920;BME280;59039;52.108;19.942;2023-11-18T01:20:42;100805.23;;;2.00;87.52
60920;BME280;59039;52.108;19.942;2023-11-18T01:23:07;100806.70;;;1.96;87.15
60920;BME280;59039;52.108;19.942;2023-11-18T01:25:32;100804.46;;;1.92;87.41
60920;BME280;59039;52.108;19.942;2023-11-18T01:27:57;100807.61;;;1.90;87.61
60920;BME280;59039;52.108;19.942;2023-11-18T01:30:23;100805.71;;;1.88;87.51
60920;BME280;59039;52.108;19.942;2023-11-18T01:32:48;100806.99;;;1.88;87.68
60920;BME280;59039;52.108;19.942;2023-11-18T01:35:13;100799.83;;;1.88;87.54
60920;BME280;59039;52.108;19.942;2023-11-18T01:37:38;100799.67;;;1.88;87.68
60920;BME280;59039;52.108;19.942;2023-11-18T01:40:04;100802.17;;;1.88;87.88
60920;BME280;59039;52.108;19.942;2023-11-18T01:42:30;100804.98;;;1.88;87.94
60920;BME280;59039;52.108;19.942;2023-11-18T01:44:55;100804.84;;;1.88;87.92
60920;BME280;59039;52.108;19.942;2023-11-18T01:47:20;100804.46;;;1.88;87.82
60920;BME280;59039;52.108;19.942;2023-11-18T01:49:45;100807.08;;;1.90;87.80
60920;BME280;59039;52.108;19.942;2023-11-18T01:52:11;100809.55;;;1.90;87.88
60920;BME280;59039;52.108;19.942;2023-11-18T01:54:37;100814.86;;;1.91;87.73
60920;BME280;59039;52.108;19.942;2023-11-18T01:57:03;100814.52;;;1.87;87.38
60920;BME280;59039;52.108;19.942;2023-11-18T01:59:28;100811.23;;;1.83;87.38
60920;BME280;59039;52.108;19.942;2023-11-18T02:01:54;100810.00;;;1.82;87.66
60920;BME280;59039;52.108;19.942;2023-11-18T02:04:20;100803.96;;;1.81;87.78
60920;BME280;59039;52.108;19.942;2023-11-18T02:06:47;100803.26;;;1.81;87.70
60920;BME280;59039;52.108;19.942;2023-11-18T02:09:17;100805.41;;;1.81;87.51
60920;BME280;59039;52.108;19.942;2023-11-18T02:11:53;100802.58;;;1.81;87.58
60920;BME280;59039;52.108;19.942;2023-11-18T02:14:20;100802.20;;;1.81;87.54
60920;BME280;59039;52.108;19.942;2023-11-18T02:16:48;100807.05;;;1.81;87.42
60920;BME280;59039;52.108;19.942;2023-11-18T02:19:20;100810.34;;;1.80;87.54
60920;BME280;59039;52.108;19.942;2023-11-18T02:21:46;100813.48;;;1.78;87.59
60920;BME280;59039;52.108;19.942;2023-11-18T02:24:30;100811.22;;;1.77;87.76
60920;BME280;59039;52.108;19.942;2023-11-18T02:27:00;100813.95;;;1.76;87.84
60920;BME280;59039;52.108;19.942;2023-11-18T02:29:26;100813.25;;;1.76;87.84
60920;BME280;59039;52.108;19.942;2023-11-18T02:31:57;100818.56;;;1.74;87.71
60920;BME280;59039;52.108;19.942;2023-11-18T02:34:28;100824.18;;;1.72;87.79
60920;BME280;59039;52.108;19.942;2023-11-18T02:36:57;100826.27;;;1.70;87.75
60920;BME280;59039;52.108;19.942;2023-11-18T02:39:28;100827.85;;;1.67;87.80
60920;BME280;59039;52.108;19.942;2023-11-18T02:41:55;100829.74;;;1.65;87.86
60920;BME280;59039;52.108;19.942;2023-11-18T02:44:22;100834.61;;;1.64;88.08
60920;BME280;59039;52.108;19.942;2023-11-18T02:46:48;100836.47;;;1.63;88.11
60920;BME280;59039;52.108;19.942;2023-11-18T02:49:13;100838.81;;;1.62;88.35
60920;BME280;59039;52.108;19.942;2023-11-18T02:51:38;100839.64;;;1.63;88.38
60920;BME280;59039;52.108;19.942;2023-11-18T02:54:04;100844.04;;;1.65;88.18
60920;BME280;59039;52.108;19.942;2023-11-18T02:56:29;100846.12;;;1.66;88.16
60920;BME280;59039;52.108;19.942;2023-11-18T02:58:54;100848.16;;;1.68;88.26
60920;BME280;59039;52.108;19.942;2023-11-18T03:01:19;100843.86;;;1.68;88.14
60920;BME280;59039;52.108;19.942;2023-11-18T03:03:44;100846.03;;;1.68;88.08
60920;BME280;59039;52.108;19.942;2023-11-18T03:06:10;100849.14;;;1.66;88.08
60920;BME280;59039;52.108;19.942;2023-11-18T03:08:35;100854.57;;;1.65;88.10
60920;BME280;59039;52.108;19.942;2023-11-18T03:11:00;100859.80;;;1.64;88.21
60920;BME280;59039;52.108;19.942;2023-11-18T03:13:25;100861.77;;;1.61;88.10
60920;BME280;59039;52.108;19.942;2023-11-18T03:15:51;100864.78;;;1.58;88.24
60920;BME280;59039;52.108;19.942;2023-11-18T03:18:16;100866.70;;;1.56;88.36
60920;BME280;59039;52.108;19.942;2023-11-18T03:20:41;100873.33;;;1.53;88.35
60920;BME280;59039;52.108;19.942;2023-11-18T03:23:06;100874.34;;;1.50;88.41
60920;BME280;59039;52.108;19.942;2023-11-18T03:25:31;100875.70;;;1.48;88.53
60920;BME280;59039;52.108;19.942;2023-11-18T03:27:57;100870.55;;;1.48;88.60
60920;BME280;59039;52.108;19.942;2023-11-18T03:30:22;100868.61;;;1.47;88.62
60920;BME280;59039;52.108;19.942;2023-11-18T03:32:47;100871.67;;;1.47;88.60
60920;BME280;59039;52.108;19.942;2023-11-18T03:35:12;100871.42;;;1.45;88.51
60920;BME280;59039;52.108;19.942;2023-11-18T03:37:39;100876.69;;;1.43;88.43
60920;BME280;59039;52.108;19.942;2023-11-18T03:40:08;100884.11;;;1.41;88.51
60920;BME280;59039;52.108;19.942;2023-11-18T03:42:33;100887.43;;;1.40;88.55
60920;BME280;59039;52.108;19.942;2023-11-18T03:44:58;100887.23;;;1.37;88.50
60920;BME280;59039;52.108;19.942;2023-11-18T03:47:24;100891.48;;;1.34;88.64
60920;BME280;59039;52.108;19.942;2023-11-18T03:49:50;100891.40;;;1.32;88.64
60920;BME280;59039;52.108;19.942;2023-11-18T03:52:16;100894.84;;;1.31;88.89
60920;BME280;59039;52.108;19.942;2023-11-18T03:54:41;100897.05;;;1.30;88.94
60920;BME280;59039;52.108;19.942;2023-11-18T03:57:06;100898.53;;;1.30;88.91
60920;BME280;59039;52.108;19.942;2023-11-18T03:59:31;100904.96;;;1.29;88.85
60920;BME280;59039;52.108;19.942;2023-11-18T04:01:56;100906.31;;;1.27;88.76
60920;BME280;59039;52.108;19.942;2023-11-18T04:04:21;100912.00;;;1.24;89.01
60920;BME280;59039;52.108;19.942;2023-11-18T04:06:47;100916.48;;;1.24;89.01
60920;BME280;59039;52.108;19.942;2023-11-18T04:09:12;100920.85;;;1.22;88.98
60920;BME280;59039;52.108;19.942;2023-11-18T04:11:37;100921.43;;;1.22;89.12
60920;BME280;59039;52.108;19.942;2023-11-18T04:14:02;100926.55;;;1.20;89.05
60920;BME280;59039;52.108;19.942;2023-11-18T04:16:27;100926.58;;;1.19;89.20
60920;BME280;59039;52.108;19.942;2023-11-18T04:18:53;100929.07;;;1.19;89.37
60920;BME280;59039;52.108;19.942;2023-11-18T04:21:18;100929.96;;;1.19;89.42
60920;BME280;59039;52.108;19.942;2023-11-18T04:23:43;100930.81;;;1.20;89.31
60920;BME280;59039;52.108;19.942;2023-11-18T04:26:08;100931.44;;;1.22;89.39
60920;BME280;59039;52.108;19.942;2023-11-18T04:28:34;100930.45;;;1.20;89.45
60920;BME280;59039;52.108;19.942;2023-11-18T04:31:00;100928.47;;;1.20;89.54
60920;BME280;59039;52.108;19.942;2023-11-18T04:33:25;100931.82;;;1.21;89.46
60920;BME280;59039;52.108;19.942;2023-11-18T04:35:51;100935.79;;;1.20;89.33
60920;BME280;59039;52.108;19.942;2023-11-18T04:38:17;100940.25;;;1.20;89.57
60920;BME280;59039;52.108;19.942;2023-11-18T04:40:44;100943.75;;;1.21;89.60
60920;BME280;59039;52.108;19.942;2023-11-18T04:43:09;100945.23;;;1.21;89.53
60920;BME280;59039;52.108;19.942;2023-11-18T04:45:34;100944.16;;;1.21;89.56
60920;BME280;59039;52.108;19.942;2023-11-18T04:47:59;100945.38;;;1.21;89.55
60920;BME280;59039;52.108;19.942;2023-11-18T04:50:24;100946.33;;;1.20;89.68
60920;BME280;59039;52.108;19.942;2023-11-18T04:52:50;100946.73;;;1.19;89.60
60920;BME280;59039;52.108;19.942;2023-11-18T04:55:15;100946.21;;;1.19;89.65
60920;BME280;59039;52.108;19.942;2023-11-18T04:57:40;100945.82;;;1.19;89.77
60920;BME280;59039;52.108;19.942;2023-11-18T05:00:06;100948.27;;;1.20;89.57
60920;BME280;59039;52.108;19.942;2023-11-18T05:02:32;100949.61;;;1.19;89.60
60920;BME280;59039;52.108;19.942;2023-11-18T05:04:57;100957.33;;;1.18;89.51
60920;BME280;59039;52.108;19.942;2023-11-18T05:07:22;100962.52;;;1.18;89.73
60920;BME280;59039;52.108;19.942;2023-11-18T05:09:47;100964.00;;;1.17;89.76
60920;BME280;59039;52.108;19.942;2023-11-18T05:12:12;100967.38;;;1.17;89.88
60920;BME280;59039;52.108;19.942;2023-11-18T05:14:37;100970.38;;;1.17;89.77
60920;BME280;59039;52.108;19.942;2023-11-18T05:17:03;100970.22;;;1.17;89.80
60920;BME280;59039;52.108;19.942;2023-11-18T05:19:28;100966.63;;;1.18;89.85
60920;BME280;59039;52.108;19.942;2023-11-18T05:21:53;100969.69;;;1.17;89.80
60920;BME280;59039;52.108;19.942;2023-11-18T05:24:18;100972.71;;;1.17;89.81
60920;BME280;59039;52.108;19.942;2023-11-18T05:26:43;100976.30;;;1.17;89.95
60920;BME280;59039;52.108;19.942;2023-11-18T05:29:09;100982.42;;;1.16;89.93
60920;BME280;59039;52.108;19.942;2023-11-18T05:31:34;100988.33;;;1.16;89.87
60920;BME280;59039;52.108;19.942;2023-11-18T05:33:59;100991.41;;;1.15;89.82
60920;BME280;59039;52.108;19.942;2023-11-18T05:36:24;100994.83;;;1.14;89.92
60920;BME280;59039;52.108;19.942;2023-11-18T05:38:50;100999.86;;;1.14;89.99
60920;BME280;59039;52.108;19.942;2023-11-18T05:41:15;101003.87;;;1.12;89.94
60920;BME280;59039;52.108;19.942;2023-11-18T05:43:40;101008.93;;;1.11;90.10
60920;BME280;59039;52.108;19.942;2023-11-18T05:46:06;101013.05;;;1.10;89.91
60920;BME280;59039;52.108;19.942;2023-11-18T05:48:31;101019.33;;;1.10;90.02
60920;BME280;59039;52.108;19.942;2023-11-18T05:50:57;101022.24;;;1.09;89.91
60920;BME280;59039;52.108;19.942;2023-11-18T05:53:22;101023.88;;;1.08;89.95
60920;BME280;59039;52.108;19.942;2023-11-18T05:55:47;101028.23;;;1.07;89.98
60920;BME280;59039;52.108;19.942;2023-11-18T05:58:12;101033.28;;;1.06;90.06
60920;BME280;59039;52.108;19.942;2023-11-18T06:00:37;101033.53;;;1.05;90.18
60920;BME280;59039;52.108;19.942;2023-11-18T06:03:03;101032.70;;;1.03;90.14
60920;BME280;59039;52.108;19.942;2023-11-18T06:05:28;101041.10;;;1.03;90.12
60920;BME280;59039;52.108;19.942;2023-11-18T06:07:53;101042.00;;;1.03;90.22
60920;BME280;59039;52.108;19.942;2023-11-18T06:10:18;101047.00;;;1.03;90.18
60920;BME280;59039;52.108;19.942;2023-11-18T06:12:43;101052.95;;;1.01;90.13
60920;BME280;59039;52.108;19.942;2023-11-18T06:15:09;101055.65;;;1.01;90.24
60920;BME280;59039;52.108;19.942;2023-11-18T06:17:34;101059.94;;;1.01;90.11
60920;BME280;59039;52.108;19.942;2023-11-18T06:19:59;101056.39;;;1.01;90.17
60920;BME280;59039;52.108;19.942;2023-11-18T06:22:24;101061.86;;;1.02;90.18
60920;BME280;59039;52.108;19.942;2023-11-18T06:24:50;101062.73;;;1.02;90.06
60920;BME280;59039;52.108;19.942;2023-11-18T06:27:15;101068.95;;;1.03;90.26
60920;BME280;59039;52.108;19.942;2023-11-18T06:29:40;101072.14;;;1.03;90.17
60920;BME280;59039;52.108;19.942;2023-11-18T06:32:05;101078.55;;;1.03;90.21
60920;BME280;59039;52.108;19.942;2023-11-18T06:34:30;101076.10;;;1.02;90.19
60920;BME280;59039;52.108;19.942;2023-11-18T06:36:56;101079.70;;;1.02;90.25
60920;BME280;59039;52.108;19.942;2023-11-18T06:39:21;101079.73;;;1.01;90.28
60920;BME280;59039;52.108;19.942;2023-11-18T06:41:46;101079.27;;;1.00;90.16
60920;BME280;59039;52.108;19.942;2023-11-18T06:44:11;101081.52;;;0.98;90.20
60920;BME280;59039;52.108;19.942;2023-11-18T06:46:36;101088.30;;;0.98;90.17
60920;BME280;59039;52.108;19.942;2023-11-18T06:49:03;101094.88;;;0.98;90.17
60920;BME280;59039;52.108;19.942;2023-11-18T06:51:30;101095.96;;;0.98;90.24
60920;BME280;59039;52.108;19.942;2023-11-18T06:53:56;101103.70;;;0.97;90.31
60920;BME280;59039;52.108;19.942;2023-11-18T06:56:26;101108.42;;;0.95;90.27
60920;BME280;59039;52.108;19.942;2023-11-18T06:58:53;101113.88;;;0.93;90.33
60920;BME280;59039;52.108;19.942;2023-11-18T07:01:18;101118.94;;;0.92;90.38
60920;BME280;59039;52.108;19.942;2023-11-18T07:03:45;101123.09;;;0.91;90.45
60920;BME280;59039;52.108;19.942;2023-11-18T07:06:11;101129.89;;;0.90;90.56
60920;BME280;59039;52.108;19.942;2023-11-18T07:08:36;101132.29;;;0.89;90.52
60920;BME280;59039;52.108;19.942;2023-11-18T07:11:02;101135.02;;;0.88;90.50
60920;BME280;59039;52.108;19.942;2023-11-18T07:13:28;101141.64;;;0.87;90.45
60920;BME280;59039;52.108;19.942;2023-11-18T07:15:53;101143.29;;;0.87;90.49
60920;BME280;59039;52.108;19.942;2023-11-18T07:18:19;101143.67;;;0.86;90.48
60920;BME280;59039;52.108;19.942;2023-11-18T07:20:44;101147.33;;;0.84;90.47
60920;BME280;59039;52.108;19.942;2023-11-18T07:23:09;101154.70;;;0.82;90.59
60920;BME280;59039;52.108;19.942;2023-11-18T07:25:34;101158.17;;;0.81;90.73
60920;BME280;59039;52.108;19.942;2023-11-18T07:28:00;101166.44;;;0.80;90.75
60920;BME280;59039;52.108;19.942;2023-11-18T07:30:25;101172.51;;;0.79;90.76
60920;BME280;59039;52.108;19.942;2023-11-18T07:32:51;101173.89;;;0.81;90.74
60920;BME280;59039;52.108;19.942;2023-11-18T07:35:16;101173.16;;;0.81;90.69
60920;BME280;59039;52.108;19.942;2023-11-18T07:37:41;101172.95;;;0.81;90.76
60920;BME280;59039;52.108;19.942;2023-11-18T07:40:07;101168.88;;;0.81;90.75
60920;BME280;59039;52.108;19.942;2023-11-18T07:42:32;101170.02;;;0.79;90.77
60920;BME280;59039;52.108;19.942;2023-11-18T07:44:57;101177.35;;;0.79;90.90
60920;BME280;59039;52.108;19.942;2023-11-18T07:47:22;101174.84;;;0.79;90.86
60920;BME280;59039;52.108;19.942;2023-11-18T07:49:48;101177.21;;;0.78;90.72
60920;BME280;59039;52.108;19.942;2023-11-18T07:52:13;101178.84;;;0.78;90.80
60920;BME280;59039;52.108;19.942;2023-11-18T07:54:38;101176.11;;;0.79;90.88
60920;BME280;59039;52.108;19.942;2023-11-18T07:57:04;101174.04;;;0.78;90.86
60920;BME280;59039;52.108;19.942;2023-11-18T07:59:29;101174.96;;;0.77;90.95
60920;BME280;59039;52.108;19.942;2023-11-18T08:01:54;101176.98;;;0.76;91.00
60920;BME280;59039;52.108;19.942;2023-11-18T08:04:19;101186.02;;;0.74;91.00
60920;BME280;59039;52.108;19.942;2023-11-18T08:06:44;101188.80;;;0.71;91.10
60920;BME280;59039;52.108;19.942;2023-11-18T08:09:10;101193.64;;;0.70;91.21
60920;BME280;59039;52.108;19.942;2023-11-18T08:11:35;101194.55;;;0.70;91.19
60920;BME280;59039;52.108;19.942;2023-11-18T08:14:00;101188.52;;;0.69;91.38
60920;BME280;59039;52.108;19.942;2023-11-18T08:16:25;101190.96;;;0.70;91.52
60920;BME280;59039;52.108;19.942;2023-11-18T08:18:50;101198.38;;;0.72;91.37
60920;BME280;59039;52.108;19.942;2023-11-18T08:21:16;101203.45;;;0.74;91.46
60920;BME280;59039;52.108;19.942;2023-11-18T08:23:41;101204.05;;;0.76;91.37
60920;BME280;59039;52.108;19.942;2023-11-18T08:26:06;101201.36;;;0.77;91.24
60920;BME280;59039;52.108;19.942;2023-11-18T08:28:31;101205.77;;;0.78;91.31
60920;BME280;59039;52.108;19.942;2023-11-18T08:30:57;101206.58;;;0.80;91.43
60920;BME280;59039;52.108;19.942;2023-11-18T08:33:22;101207.13;;;0.79;91.26
60920;BME280;59039;52.108;19.942;2023-11-18T08:35:48;101208.25;;;0.78;91.16
60920;BME280;59039;52.108;19.942;2023-11-18T08:38:13;101212.40;;;0.78;90.99
60920;BME280;59039;52.108;19.942;2023-11-18T08:40:39;101217.27;;;0.76;90.96
60920;BME280;59039;52.108;19.942;2023-11-18T08:43:05;101218.02;;;0.76;90.90
60920;BME280;59039;52.108;19.942;2023-11-18T08:45:30;101218.55;;;0.75;91.07
60920;BME280;59039;52.108;19.942;2023-11-18T08:47:56;101218.19;;;0.76;91.04
60920;BME280;59039;52.108;19.942;2023-11-18T08:50:22;101219.94;;;0.76;91.11
60920;BME280;59039;52.108;19.942;2023-11-18T08:52:47;101225.07;;;0.77;91.13
60920;BME280;59039;52.108;19.942;2023-11-18T08:55:13;101226.81;;;0.78;91.20
60920;BME280;59039;52.108;19.942;2023-11-18T08:57:39;101229.95;;;0.80;91.10
60920;BME280;59039;52.108;19.942;2023-11-18T09:00:04;101230.52;;;0.82;91.17
60920;BME280;59039;52.108;19.942;2023-11-18T09:02:30;101230.19;;;0.86;91.54
60920;BME280;59039;52.108;19.942;2023-11-18T09:04:55;101232.73;;;0.89;91.60
60920;BME280;59039;52.108;19.942;2023-11-18T09:07:20;101240.09;;;0.92;91.49
60920;BME280;59039;52.108;19.942;2023-11-18T09:09:46;101239.02;;;0.95;91.33
60920;BME280;59039;52.108;19.942;2023-11-18T09:12:11;101237.64;;;0.98;91.24
60920;BME280;59039;52.108;19.942;2023-11-18T09:14:37;101238.54;;;1.01;91.38
60920;BME280;59039;52.108;19.942;2023-11-18T09:17:02;101236.82;;;1.04;91.05
60920;BME280;59039;52.108;19.942;2023-11-18T09:19:27;101238.56;;;1.05;91.10
60920;BME280;59039;52.108;19.942;2023-11-18T09:21:53;101234.16;;;1.08;91.16
60920;BME280;59039;52.108;19.942;2023-11-18T09:24:18;101239.27;;;1.09;90.64
60920;BME280;59039;52.108;19.942;2023-11-18T09:26:43;101240.70;;;1.09;90.46
60920;BME280;59039;52.108;19.942;2023-11-18T09:29:08;101241.48;;;1.11;90.77
60920;BME280;59039;52.108;19.942;2023-11-18T09:31:37;101241.04;;;1.13;90.77
60920;BME280;59039;52.108;19.942;2023-11-18T09:34:02;101245.21;;;1.15;90.76
60920;BME280;59039;52.108;19.942;2023-11-18T09:36:27;101240.64;;;1.17;90.75
60920;BME280;59039;52.108;19.942;2023-11-18T09:38:52;101243.20;;;1.20;90.67
60920;BME280;59039;52.108;19.942;2023-11-18T09:41:18;101242.96;;;1.21;90.41
60920;BME280;59039;52.108;19.942;2023-11-18T09:43:44;101240.88;;;1.20;90.20
60920;BME280;59039;52.108;19.942;2023-11-18T09:46:10;101242.98;;;1.17;90.15
60920;BME280;59039;52.108;19.942;2023-11-18T09:48:35;101244.80;;;1.16;90.35
60920;BME280;59039;52.108;19.942;2023-11-18T09:51:01;101252.83;;;1.16;90.58
60920;BME280;59039;52.108;19.942;2023-11-18T09:53:28;101251.77;;;1.16;90.58
60920;BME280;59039;52.108;19.942;2023-11-18T09:56:04;101250.98;;;1.17;90.80
60920;BME280;59039;52.108;19.942;2023-11-18T09:58:39;101254.74;;;1.17;90.43
60920;BME280;59039;52.108;19.942;2023-11-18T10:01:05;101253.73;;;1.16;90.48
60920;BME280;59039;52.108;19.942;2023-11-18T10:03:31;101251.47;;;1.19;90.48
60920;BME280;59039;52.108;19.942;2023-11-18T10:05:57;101249.52;;;1.22;90.64
60920;BME280;59039;52.108;19.942;2023-11-18T10:08:23;101258.30;;;1.25;90.89
60920;BME280;59039;52.108;19.942;2023-11-18T10:10:48;101255.45;;;1.25;90.43
60920;BME280;59039;52.108;19.942;2023-11-18T10:13:13;101262.15;;;1.27;90.40
60920;BME280;59039;52.108;19.942;2023-11-18T10:15:38;101262.36;;;1.26;90.19
60920;BME280;59039;52.108;19.942;2023-11-18T10:18:04;101260.48;;;1.24;89.93
60920;BME280;59039;52.108;19.942;2023-11-18T10:20:43;101260.83;;;1.24;90.18
60920;BME280;59039;52.108;19.942;2023-11-18T10:23:09;101262.92;;;1.25;90.49
60920;BME280;59039;52.108;19.942;2023-11-18T10:25:34;101269.79;;;1.28;90.83
60920;BME280;59039;52.108;19.942;2023-11-18T10:28:01;101270.13;;;1.28;90.47
60920;BME280;59039;52.108;19.942;2023-11-18T10:30:26;101273.02;;;1.31;90.58
60920;BME280;59039;52.108;19.942;2023-11-18T10:33:01;101274.77;;;1.31;90.55
60920;BME280;59039;52.108;19.942;2023-11-18T10:35:26;101270.85;;;1.31;90.40
60920;BME280;59039;52.108;19.942;2023-11-18T10:37:51;101269.14;;;1.30;90.35
60920;BME280;59039;52.108;19.942;2023-11-18T10:40:17;101265.48;;;1.28;90.00
60920;BME280;59039;52.108;19.942;2023-11-18T10:42:42;101269.35;;;1.25;90.16
60920;BME280;59039;52.108;19.942;2023-11-18T10:45:07;101270.28;;;1.24;90.26
60920;BME280;59039;52.108;19.942;2023-11-18T10:47:33;101271.02;;;1.24;90.50
60920;BME280;59039;52.108;19.942;2023-11-18T10:49:59;101270.16;;;1.23;90.32
60920;BME280;59039;52.108;19.942;2023-11-18T10:52:24;101277.80;;;1.24;90.31
60920;BME280;59039;52.108;19.942;2023-11-18T10:54:50;101284.35;;;1.25;90.48
60920;BME280;59039;52.108;19.942;2023-11-18T10:57:16;101286.67;;;1.25;90.29
60920;BME280;59039;52.108;19.942;2023-11-18T11:00:04;101290.48;;;1.24;90.00
60920;BME280;59039;52.108;19.942;2023-11-18T11:02:30;101296.34;;;1.21;89.67
60920;BME280;59039;52.108;19.942;2023-11-18T11:04:56;101302.95;;;1.21;89.96
60920;BME280;59039;52.108;19.942;2023-11-18T11:07:22;101305.08;;;1.21;90.03
60920;BME280;59039;52.108;19.942;2023-11-18T11:09:48;101309.52;;;1.21;89.73
60920;BME280;59039;52.108;19.942;2023-11-18T11:12:14;101311.69;;;1.21;89.85
60920;BME280;59039;52.108;19.942;2023-11-18T11:14:48;101313.30;;;1.21;89.69
60920;BME280;59039;52.108;19.942;2023-11-18T11:17:20;101316.73;;;1.20;89.48
60920;BME280;59039;52.108;19.942;2023-11-18T11:19:54;101317.09;;;1.20;89.60
60920;BME280;59039;52.108;19.942;2023-11-18T11:22:24;101315.55;;;1.22;89.97
60920;BME280;59039;52.108;19.942;2023-11-18T11:27:41;101323.09;;;1.22;89.63
60920;BME280;59039;52.108;19.942;2023-11-18T11:30:16;101326.02;;;1.20;89.60
60920;BME280;59039;52.108;19.942;2023-11-18T11:32:51;101332.64;;;1.20;89.69
60920;BME280;59039;52.108;19.942;2023-11-18T11:35:30;101340.33;;;1.19;89.56
60920;BME280;59039;52.108;19.942;2023-11-18T11:37:56;101343.70;;;1.20;89.75
60920;BME280;59039;52.108;19.942;2023-11-18T11:40:21;101349.06;;;1.20;89.64
60920;BME280;59039;52.108;19.942;2023-11-18T11:42:49;101350.13;;;1.20;89.50
60920;BME280;59039;52.108;19.942;2023-11-18T11:45:15;101354.14;;;1.18;88.92
60920;BME280;59039;52.108;19.942;2023-11-18T11:47:40;101357.59;;;1.17;88.87
60920;BME280;59039;52.108;19.942;2023-11-18T11:50:13;101356.68;;;1.17;89.41
60920;BME280;59039;52.108;19.942;2023-11-18T11:52:49;101362.16;;;1.14;89.33
60920;BME280;59039;52.108;19.942;2023-11-18T11:55:55;101363.94;;;1.11;89.16
60920;BME280;59039;52.108;19.942;2023-11-18T11:58:30;101373.83;;;1.09;89.10
60920;BME280;59039;52.108;19.942;2023-11-18T12:00:55;101378.70;;;1.08;89.16
60920;BME280;59039;52.108;19.942;2023-11-18T12:03:23;101382.48;;;1.07;89.15
60920;BME280;59039;52.108;19.942;2023-11-18T12:05:49;101379.44;;;1.08;89.29
60920;BME280;59039;52.108;19.942;2023-11-18T12:08:16;101382.80;;;1.08;89.36
60920;BME280;59039;52.108;19.942;2023-11-18T12:10:51;101387.99;;;1.08;89.59
60920;BME280;59039;52.108;19.942;2023-11-18T12:13:17;101385.17;;;1.07;89.60
60920;BME280;59039;52.108;19.942;2023-11-18T12:15:49;101387.73;;;1.06;89.47
60920;BME280;59039;52.108;19.942;2023-11-18T12:18:15;101390.98;;;1.05;89.56
60920;BME280;59039;52.108;19.942;2023-11-18T12:20:44;101396.60;;;1.03;89.22
60920;BME280;59039;52.108;19.942;2023-11-18T12:23:09;101401.19;;;1.00;89.15
60920;BME280;59039;52.108;19.942;2023-11-18T12:25:35;101393.36;;;1.00;89.33
60920;BME280;59039;52.108;19.942;2023-11-18T12:28:07;101391.55;;;1.00;89.46
60920;BME280;59039;52.108;19.942;2023-11-18T12:33:02;101400.00;;;0.99;89.42
60920;BME280;59039;52.108;19.942;2023-11-18T12:35:28;101405.56;;;0.98;89.42
60920;BME280;59039;52.108;19.942;2023-11-18T12:38:26;101407.05;;;0.97;89.37
60920;BME280;59039;52.108;19.942;2023-11-18T12:40:56;101410.45;;;0.96;89.58
60920;BME280;59039;52.108;19.942;2023-11-18T12:46:59;101414.54;;;0.97;89.36
60920;BME280;59039;52.108;19.942;2023-11-18T12:49:24;101411.38;;;0.96;89.18
60920;BME280;59039;52.108;19.942;2023-11-18T12:51:54;101413.52;;;0.96;89.28
60920;BME280;59039;52.108;19.942;2023-11-18T12:54:20;101414.61;;;0.95;89.38